Terminal Aerodrome Forecast
Issued by NWS

Home | Current Version | Previous Version | Text Only | Print | Product List | Glossary On
Versions: 1 2 3 4 5 6 7 8 9 10 11 12 13 14 15 16 17 18 19 20
000
FTUS43 KAPX 271121
TAFPLN
TAF
KPLN 271121Z 2712/2812 33010G20KT P6SM -SHSN SCT015 OVC025
      TEMPO 2713/2716 3SM -SHSN
     FM271900 32011G20KT P6SM -SHSN BKN035
     FM272300 32008KT P6SM -SHSN BKN035
     FM280600 27004KT P6SM -SHSN BKN035=

USA.gov is the U.S. government's official web portal to all federal, state and local government web resources and services.